Terminal Aerodrome Forecast
Issued by NWS Charleston, WV

Current Version | Previous Version | Graphics & Text | Print | Product List | Glossary On
Versions: 1 2 3 4 5 6 7 8 9 10 11 12 13 14 15 16 17 18 19 20 21 22 23 24 25 26 27 28 29
000
FTUS41 KRLX 290200 AAA
TAFCRW
TAF AMD
KCRW 290238Z 2903/2924 30004KT P6SM BKN035 BKN080
     FM290700 00000KT 4SM BR SCT045
     FM290900 00000KT 1/4SM FG BKN001
     FM291200 00000KT 5SM BR BKN001
     FM291300 00000KT 5SM BR SCT001
     FM291400 30004KT P6SM SCT045=

USA.gov is the U.S. government's official web portal to all federal, state and local government web resources and services.